createdAt,value
2022-11-19T00:00:08.020Z,0
2022-11-19T00:01:08.173Z,0
2022-11-19T00:02:08.397Z,0
2022-11-19T00:03:08.758Z,0
2022-11-19T00:04:08.905Z,0
2022-11-19T00:05:09.056Z,0
2022-11-19T00:06:09.203Z,0
2022-11-19T00:07:09.375Z,0
2022-11-19T00:08:09.670Z,0
2022-11-19T00:09:09.824Z,0
2022-11-19T00:10:09.976Z,0
2022-11-19T00:11:10.206Z,0
2022-11-19T00:12:10.363Z,0
2022-11-19T00:13:10.522Z,0
2022-11-19T00:14:10.680Z,0
2022-11-19T00:15:10.836Z,0
2022-11-19T00:16:10.992Z,0
2022-11-19T00:17:11.149Z,0
2022-11-19T00:18:11.307Z,0
2022-11-19T00:19:11.473Z,0
2022-11-19T00:20:11.636Z,0
2022-11-19T00:21:11.786Z,0
2022-11-19T00:22:11.945Z,0
2022-11-19T00:23:12.101Z,0
2022-11-19T00:24:12.260Z,0
2022-11-19T00:25:12.413Z,0
2022-11-19T00:26:12.563Z,0
2022-11-19T00:27:12.719Z,0
2022-11-19T00:28:12.927Z,0
2022-11-19T00:29:16.791Z,0
2022-11-19T00:30:40.561Z,0
2022-11-19T00:31:49.137Z,0
2022-11-19T00:32:49.283Z,0
2022-11-19T00:33:49.432Z,0
2022-11-19T00:34:49.585Z,0
2022-11-19T00:35:49.736Z,0
2022-11-19T00:36:49.898Z,0
2022-11-19T00:37:50.065Z,0
2022-11-19T00:38:50.216Z,0
2022-11-19T00:39:50.374Z,0
2022-11-19T00:40:50.530Z,0
2022-11-19T00:41:50.681Z,0
2022-11-19T00:42:50.837Z,0
2022-11-19T00:43:50.993Z,0
2022-11-19T00:44:51.143Z,0
2022-11-19T00:45:51.294Z,0
2022-11-19T00:46:51.451Z,0
2022-11-19T00:47:51.603Z,0
2022-11-19T00:48:51.759Z,0
2022-11-19T00:49:51.920Z,0
2022-11-19T00:50:52.073Z,0
2022-11-19T00:51:52.226Z,0
2022-11-19T00:52:52.378Z,0
2022-11-19T00:53:52.529Z,0
2022-11-19T00:54:52.675Z,0
2022-11-19T00:55:52.837Z,0
2022-11-19T00:56:52.986Z,0
2022-11-19T00:57:53.140Z,0
2022-11-19T00:58:53.286Z,0
2022-11-19T00:59:53.439Z,0
2022-11-19T01:00:53.610Z,0
2022-11-19T01:01:53.882Z,0
2022-11-19T01:02:54.045Z,0
2022-11-19T01:03:54.192Z,0
2022-11-19T01:04:54.345Z,0
2022-11-19T01:05:54.511Z,0
2022-11-19T01:06:54.784Z,0
2022-11-19T01:07:55.054Z,0
2022-11-19T01:08:55.202Z,0
2022-11-19T01:09:55.356Z,0
2022-11-19T01:10:55.512Z,0
2022-11-19T01:11:55.664Z,0
2022-11-19T01:12:55.818Z,0
2022-11-19T01:13:55.972Z,0
2022-11-19T01:14:56.125Z,0
2022-11-19T01:15:56.279Z,0
2022-11-19T01:16:56.429Z,0
2022-11-19T01:17:56.583Z,0
2022-11-19T01:18:56.738Z,0
2022-11-19T01:19:56.918Z,0
2022-11-19T01:20:57.173Z,0
2022-11-19T01:21:57.339Z,0
2022-11-19T01:22:57.490Z,0
2022-11-19T01:23:57.650Z,0
2022-11-19T01:24:57.807Z,0
2022-11-19T01:25:57.973Z,0
2022-11-19T01:26:58.129Z,0
2022-11-19T01:27:58.278Z,0
2022-11-19T01:28:58.439Z,0
2022-11-19T01:29:58.610Z,0
2022-11-19T01:30:58.769Z,0
2022-11-19T01:31:58.922Z,0
2022-11-19T01:32:59.072Z,0
2022-11-19T01:33:59.226Z,0
2022-11-19T01:34:59.433Z,0
2022-11-19T01:35:59.581Z,0
2022-11-19T01:36:59.737Z,0
2022-11-19T01:37:59.898Z,0
2022-11-19T01:39:00.044Z,0
2022-11-19T01:40:00.203Z,0
2022-11-19T01:41:00.360Z,0
2022-11-19T01:42:00.514Z,0
2022-11-19T01:43:00.668Z,0
2022-11-19T01:44:00.826Z,0
2022-11-19T01:45:00.983Z,0
2022-11-19T01:46:01.153Z,0
2022-11-19T01:47:01.306Z,0
2022-11-19T01:48:01.459Z,0
2022-11-19T01:49:01.608Z,0
2022-11-19T01:50:01.767Z,0
2022-11-19T01:51:01.918Z,0
2022-11-19T01:52:02.084Z,0
2022-11-19T01:53:02.245Z,0
2022-11-19T01:54:02.402Z,0
2022-11-19T01:55:02.561Z,0
2022-11-19T01:56:02.709Z,0
2022-11-19T01:57:02.860Z,0
2022-11-19T01:58:03.076Z,0
2022-11-19T01:59:03.230Z,0
2022-11-19T02:00:03.381Z,0
2022-11-19T02:01:03.576Z,0
2022-11-19T02:02:03.879Z,0
2022-11-19T02:03:04.051Z,0
2022-11-19T02:04:04.227Z,0
2022-11-19T02:05:04.392Z,0
2022-11-19T02:06:04.547Z,0
2022-11-19T02:07:04.756Z,0
2022-11-19T02:08:05.064Z,0
2022-11-19T02:09:05.211Z,0
2022-11-19T02:10:05.365Z,0
2022-11-19T02:11:05.519Z,0
2022-11-19T02:12:05.664Z,0
2022-11-19T02:13:05.829Z,0
2022-11-19T02:14:05.980Z,0
2022-11-19T02:15:06.129Z,0
2022-11-19T02:16:06.289Z,0
2022-11-19T02:17:06.446Z,0
2022-11-19T02:18:06.604Z,0
2022-11-19T02:19:06.767Z,0
2022-11-19T02:20:06.919Z,0
2022-11-19T02:21:07.073Z,0
2022-11-19T02:22:07.230Z,0
2022-11-19T02:23:07.385Z,0
2022-11-19T02:24:07.541Z,0
2022-11-19T02:25:07.693Z,0
2022-11-19T02:26:07.839Z,0
2022-11-19T02:27:07.986Z,0
2022-11-19T02:28:08.136Z,0
2022-11-19T02:29:08.295Z,0
2022-11-19T02:30:08.453Z,0
2022-11-19T02:31:08.616Z,0
2022-11-19T02:32:08.777Z,0
2022-11-19T02:33:08.930Z,0
2022-11-19T02:34:09.079Z,0
2022-11-19T02:35:09.235Z,0
2022-11-19T02:36:09.422Z,0
2022-11-19T02:37:09.572Z,0
2022-11-19T02:38:09.729Z,0
2022-11-19T02:39:09.891Z,0
2022-11-19T02:40:10.049Z,0
2022-11-19T02:41:10.213Z,0
2022-11-19T02:42:10.362Z,0
2022-11-19T02:43:10.824Z,0
2022-11-19T02:44:10.975Z,0
2022-11-19T02:45:11.127Z,0
2022-11-19T02:46:11.280Z,0
2022-11-19T02:47:11.439Z,0
2022-11-19T02:48:11.586Z,0
2022-11-19T02:49:11.731Z,0
2022-11-19T02:50:11.903Z,0
2022-11-19T02:51:12.056Z,0
2022-11-19T02:52:12.215Z,0
2022-11-19T02:53:12.370Z,0
2022-11-19T02:54:12.529Z,0
2022-11-19T02:55:12.684Z,0
2022-11-19T02:56:12.838Z,0
2022-11-19T02:57:12.989Z,0
2022-11-19T02:58:13.137Z,0
2022-11-19T02:59:13.303Z,0
2022-11-19T03:00:13.456Z,0
2022-11-19T03:01:13.624Z,0
2022-11-19T03:02:13.933Z,0
2022-11-19T03:03:14.092Z,0
2022-11-19T03:04:14.244Z,0
2022-11-19T03:05:14.404Z,0
2022-11-19T03:06:14.556Z,0
2022-11-19T03:07:14.741Z,0
2022-11-19T03:08:15.010Z,0
2022-11-19T03:09:15.161Z,0
2022-11-19T03:10:15.314Z,0
2022-11-19T03:11:15.460Z,0
2022-11-19T03:12:15.609Z,0
2022-11-19T03:13:15.757Z,0
2022-11-19T03:14:15.939Z,0
2022-11-19T03:15:16.123Z,0
2022-11-19T03:16:16.271Z,0
2022-11-19T03:17:16.437Z,0
2022-11-19T03:18:16.590Z,0
2022-11-19T03:19:16.996Z,0
2022-11-19T03:20:17.901Z,0
2022-11-19T03:21:18.052Z,0
2022-11-19T03:22:18.203Z,0
2022-11-19T03:23:18.360Z,0
2022-11-19T03:24:18.511Z,0
2022-11-19T03:25:18.662Z,0
2022-11-19T03:26:18.806Z,0
2022-11-19T03:27:18.954Z,0
2022-11-19T03:28:19.112Z,0
2022-11-19T03:29:19.352Z,0
2022-11-19T03:30:20.208Z,0
2022-11-19T03:31:20.360Z,0
2022-11-19T03:32:20.515Z,0
2022-11-19T03:33:20.667Z,0
2022-11-19T03:34:20.819Z,0
2022-11-19T03:35:20.976Z,0
2022-11-19T03:36:21.129Z,0
2022-11-19T03:37:21.281Z,0
2022-11-19T03:38:21.437Z,0
2022-11-19T03:39:21.895Z,0
2022-11-19T03:40:22.767Z,0
2022-11-19T03:41:22.913Z,0
2022-11-19T03:42:23.069Z,0
2022-11-19T03:43:23.229Z,0
2022-11-19T03:44:23.383Z,0
2022-11-19T03:45:23.536Z,0
2022-11-19T03:46:23.684Z,0
2022-11-19T03:47:23.838Z,0
2022-11-19T03:48:23.991Z,0
2022-11-19T03:49:24.142Z,0
2022-11-19T03:50:24.295Z,0
2022-11-19T03:51:24.444Z,0
2022-11-19T03:52:24.592Z,0
2022-11-19T03:53:24.747Z,0
2022-11-19T03:54:24.901Z,0
2022-11-19T03:55:25.059Z,0
2022-11-19T03:56:25.214Z,0
2022-11-19T03:57:25.377Z,0
2022-11-19T03:58:25.527Z,0
2022-11-19T03:59:29.547Z,0
2022-11-19T04:00:30.972Z,0
2022-11-19T04:01:31.198Z,0
2022-11-19T04:02:31.644Z,0
2022-11-19T04:03:31.817Z,0
2022-11-19T04:04:31.968Z,0
2022-11-19T04:05:32.118Z,0
2022-11-19T04:06:32.283Z,0
2022-11-19T04:07:32.490Z,0
2022-11-19T04:08:32.874Z,0
2022-11-19T04:09:33.030Z,0
2022-11-19T04:10:33.187Z,0
2022-11-19T04:11:33.534Z,0
2022-11-19T04:12:33.869Z,0
2022-11-19T04:13:34.012Z,0
2022-11-19T04:14:34.169Z,0
2022-11-19T04:15:34.323Z,0
2022-11-19T04:16:34.475Z,0
2022-11-19T04:17:34.639Z,0
2022-11-19T04:18:34.806Z,0
2022-11-19T04:19:34.966Z,0
2022-11-19T04:20:35.135Z,0
2022-11-19T04:21:35.288Z,0
2022-11-19T04:22:35.441Z,0
2022-11-19T04:23:35.596Z,0
2022-11-19T04:24:35.751Z,0
2022-11-19T04:25:35.918Z,0
2022-11-19T04:26:36.066Z,0
2022-11-19T04:27:36.219Z,0
2022-11-19T04:28:36.427Z,0
2022-11-19T04:29:36.588Z,0
2022-11-19T04:30:36.739Z,0
2022-11-19T04:31:36.895Z,0
2022-11-19T04:32:37.048Z,0
2022-11-19T04:33:37.206Z,0
2022-11-19T04:34:37.358Z,0
2022-11-19T04:35:37.513Z,0
2022-11-19T04:36:37.668Z,0
2022-11-19T04:37:37.826Z,0
2022-11-19T04:38:37.990Z,0
2022-11-19T04:39:38.154Z,0
2022-11-19T04:40:38.316Z,0
2022-11-19T04:41:38.474Z,0
2022-11-19T04:42:38.635Z,0
2022-11-19T04:43:38.791Z,0
2022-11-19T04:44:38.940Z,0
2022-11-19T04:45:39.099Z,0
2022-11-19T04:46:39.257Z,0
2022-11-19T04:47:39.411Z,0
2022-11-19T04:48:39.564Z,0
2022-11-19T04:49:39.716Z,0
2022-11-19T04:50:39.871Z,0
2022-11-19T04:51:40.048Z,0
2022-11-19T04:52:41.285Z,0
2022-11-19T04:53:41.872Z,0
2022-11-19T04:54:42.026Z,0
2022-11-19T04:55:42.181Z,0
2022-11-19T04:56:42.344Z,0
2022-11-19T04:57:42.495Z,0
2022-11-19T04:58:42.682Z,0
2022-11-19T04:59:42.828Z,0
2022-11-19T05:00:42.982Z,0
2022-11-19T05:01:43.153Z,0
2022-11-19T05:02:43.503Z,0
2022-11-19T05:03:43.651Z,0
2022-11-19T05:04:43.804Z,0
2022-11-19T05:05:43.957Z,0
2022-11-19T05:06:44.120Z,0
2022-11-19T05:07:44.275Z,0
2022-11-19T05:08:44.428Z,0
2022-11-19T05:09:44.585Z,0
2022-11-19T05:10:44.741Z,0
2022-11-19T05:11:44.902Z,0
2022-11-19T05:12:45.053Z,0
2022-11-19T05:13:45.209Z,0
2022-11-19T05:14:45.358Z,0
2022-11-19T05:15:45.548Z,0
2022-11-19T05:16:45.697Z,0
2022-11-19T05:17:45.857Z,0
2022-11-19T05:18:46.011Z,0
2022-11-19T05:19:46.166Z,0
2022-11-19T05:20:46.322Z,0
2022-11-19T05:21:46.476Z,0
2022-11-19T05:22:46.630Z,0
2022-11-19T05:23:46.897Z,0
2022-11-19T05:24:47.052Z,0
2022-11-19T05:25:47.209Z,0
2022-11-19T05:26:47.357Z,0
2022-11-19T05:27:47.524Z,0
2022-11-19T05:28:47.688Z,0
2022-11-19T05:29:47.845Z,0
2022-11-19T05:30:47.992Z,0
2022-11-19T05:31:48.143Z,0
2022-11-19T05:32:48.294Z,0
2022-11-19T05:33:48.444Z,0
2022-11-19T05:34:48.597Z,0
2022-11-19T05:35:48.758Z,0
2022-11-19T05:36:48.913Z,0
2022-11-19T05:37:49.061Z,0
2022-11-19T05:38:49.210Z,0
2022-11-19T05:39:49.363Z,0
2022-11-19T05:40:49.518Z,0
2022-11-19T05:41:49.672Z,0
2022-11-19T05:42:49.824Z,0
2022-11-19T05:43:49.979Z,0
2022-11-19T05:44:50.151Z,0
2022-11-19T05:45:50.305Z,0
2022-11-19T05:46:50.451Z,0
2022-11-19T05:47:50.603Z,0
2022-11-19T05:48:50.756Z,0
2022-11-19T05:49:50.912Z,0
2022-11-19T05:50:51.057Z,0
2022-11-19T05:51:51.209Z,0
2022-11-19T05:52:51.364Z,0
2022-11-19T05:53:51.537Z,0
2022-11-19T05:54:51.798Z,0
2022-11-19T05:55:51.945Z,0
2022-11-19T05:56:52.095Z,0
2022-11-19T05:57:52.251Z,0
2022-11-19T05:58:52.399Z,0
2022-11-19T05:59:52.551Z,0
2022-11-19T06:00:52.708Z,0
2022-11-19T06:01:52.863Z,0
2022-11-19T06:02:53.028Z,0
2022-11-19T06:03:53.343Z,0
2022-11-19T06:04:53.503Z,0
2022-11-19T06:05:53.655Z,0
2022-11-19T06:06:53.806Z,0
2022-11-19T06:07:53.991Z,0
2022-11-19T06:08:54.136Z,0
2022-11-19T06:09:54.284Z,0
2022-11-19T06:10:54.435Z,1
2022-11-19T06:11:54.594Z,2
2022-11-19T06:12:54.746Z,3
2022-11-19T06:13:54.891Z,5
2022-11-19T06:14:55.046Z,6
2022-11-19T06:15:55.196Z,8
2022-11-19T06:16:55.416Z,10
2022-11-19T06:17:55.694Z,11
2022-11-19T06:18:56.197Z,13
2022-11-19T06:19:56.406Z,17
2022-11-19T06:20:56.561Z,19
2022-11-19T06:21:56.883Z,21
2022-11-19T06:22:57.100Z,24
2022-11-19T06:23:57.370Z,27
2022-11-19T06:24:57.701Z,33
2022-11-19T06:25:57.895Z,37
2022-11-19T06:26:58.063Z,41
2022-11-19T06:27:58.218Z,41
2022-11-19T06:28:58.585Z,47
2022-11-19T06:29:58.808Z,52
2022-11-19T06:30:59.027Z,64
2022-11-19T06:31:59.353Z,71
2022-11-19T06:32:59.508Z,80
2022-11-19T06:33:59.807Z,88
2022-11-19T06:35:00.049Z,98
2022-11-19T06:36:00.258Z,110
2022-11-19T06:37:00.446Z,110
2022-11-19T06:38:00.597Z,130
2022-11-19T06:39:00.746Z,130
2022-11-19T06:40:00.911Z,130
2022-11-19T06:41:01.215Z,150
2022-11-19T06:42:01.384Z,169.92
2022-11-19T06:43:01.595Z,189.92
2022-11-19T06:44:01.948Z,209.92
2022-11-19T06:45:02.169Z,240
2022-11-19T06:46:02.466Z,269.92
2022-11-19T06:47:02.812Z,329.92
2022-11-19T06:48:02.996Z,329.92
2022-11-19T06:49:03.266Z,369.92
2022-11-19T06:50:03.504Z,369.92
2022-11-19T06:51:03.923Z,409.92
2022-11-19T06:52:04.127Z,409.92
2022-11-19T06:53:04.283Z,409.92
2022-11-19T06:54:04.438Z,409.92
2022-11-19T06:55:04.725Z,409.92
2022-11-19T06:56:04.994Z,409.92
2022-11-19T06:57:05.232Z,409.92
2022-11-19T06:58:05.575Z,409.92
2022-11-19T06:59:05.855Z,459.84
2022-11-19T07:00:06.034Z,459.84
2022-11-19T07:01:06.392Z,459.84
2022-11-19T07:02:06.865Z,459.84
2022-11-19T07:03:07.393Z,459.84
2022-11-19T07:04:07.625Z,459.84
2022-11-19T07:05:07.871Z,459.84
2022-11-19T07:06:08.216Z,459.84
2022-11-19T07:07:08.425Z,459.84
2022-11-19T07:08:08.758Z,459.84
2022-11-19T07:09:08.913Z,499.84
2022-11-19T07:10:09.062Z,499.84
2022-11-19T07:11:09.215Z,499.84
2022-11-19T07:12:09.374Z,499.84
2022-11-19T07:13:09.533Z,499.84
2022-11-19T07:14:09.691Z,549.76
2022-11-19T07:15:09.845Z,549.76
2022-11-19T07:16:09.999Z,549.76
2022-11-19T07:17:10.151Z,609.92
2022-11-19T07:18:10.332Z,609.92
2022-11-19T07:19:10.482Z,609.92
2022-11-19T07:20:10.632Z,609.92
2022-11-19T07:21:10.782Z,609.92
2022-11-19T07:22:10.930Z,679.68
2022-11-19T07:23:11.088Z,679.68
2022-11-19T07:24:11.245Z,749.44
2022-11-19T07:25:11.394Z,749.44
2022-11-19T07:26:11.544Z,839.68
2022-11-19T07:27:11.694Z,839.68
2022-11-19T07:28:11.849Z,929.92
2022-11-19T07:29:12.005Z,1040
2022-11-19T07:30:12.164Z,1159.68
2022-11-19T07:31:12.320Z,1159.68
2022-11-19T07:32:12.477Z,1280
2022-11-19T07:33:12.633Z,1280
2022-11-19T07:34:12.784Z,1280
2022-11-19T07:35:12.935Z,1280
2022-11-19T07:36:18.044Z,1280
2022-11-19T07:37:18.926Z,1359.36
2022-11-19T07:38:19.086Z,1359.36
2022-11-19T07:39:19.578Z,1359.36
2022-11-19T07:40:20.576Z,1359.36
2022-11-19T07:41:20.733Z,1359.36
2022-11-19T07:42:20.884Z,1259.52
2022-11-19T07:43:21.041Z,1259.52
2022-11-19T07:44:21.207Z,1259.52
2022-11-19T07:45:21.357Z,1259.52
2022-11-19T07:46:21.516Z,1399.04
2022-11-19T07:47:21.669Z,1399.04
2022-11-19T07:48:21.821Z,1539.84
2022-11-19T07:49:22.242Z,1719.04
2022-11-19T07:50:23.531Z,1899.52
2022-11-19T07:51:23.686Z,1899.52
2022-11-19T07:52:23.840Z,2119.68
2022-11-19T07:53:23.988Z,2359.04
2022-11-19T07:54:24.144Z,2618.88
2022-11-19T07:55:24.298Z,2918.4
2022-11-19T07:56:24.445Z,3778.56
2022-11-19T07:57:29.804Z,4177.92
2022-11-19T07:58:30.879Z,4057.6
2022-11-19T07:59:31.028Z,3758.08
2022-11-19T08:00:31.183Z,3758.08
2022-11-19T08:01:31.429Z,3758.08
2022-11-19T08:02:31.708Z,3758.08
2022-11-19T08:03:31.860Z,3758.08
2022-11-19T08:04:32.018Z,3758.08
2022-11-19T08:05:32.179Z,3758.08
2022-11-19T08:06:32.322Z,3758.08
2022-11-19T08:07:32.550Z,4160
2022-11-19T08:08:33.155Z,4160
2022-11-19T08:09:33.302Z,5158.4
2022-11-19T08:10:33.453Z,8197.12
2022-11-19T08:11:33.621Z,15790.08
2022-11-19T08:12:33.873Z,15790.08
2022-11-19T08:13:34.025Z,15790.08
2022-11-19T08:14:34.179Z,13998.08
2022-11-19T08:15:34.337Z,10997.76
2022-11-19T08:16:34.515Z,8576
2022-11-19T08:17:34.656Z,6876.16
2022-11-19T08:18:34.815Z,6138.88
2022-11-19T08:19:34.986Z,5437.44
2022-11-19T08:20:35.149Z,5437.44
2022-11-19T08:21:35.314Z,5437.44
2022-11-19T08:22:35.482Z,4858.88
2022-11-19T08:23:35.637Z,4858.88
2022-11-19T08:24:35.796Z,4858.88
2022-11-19T08:25:35.948Z,4858.88
2022-11-19T08:26:36.109Z,4858.88
2022-11-19T08:27:36.258Z,5355.52
2022-11-19T08:28:36.408Z,5355.52
2022-11-19T08:29:36.561Z,5898.24
2022-11-19T08:30:36.721Z,5898.24
2022-11-19T08:31:36.869Z,7418.88
2022-11-19T08:32:37.032Z,8458.24
2022-11-19T08:33:37.183Z,8458.24
2022-11-19T08:34:37.335Z,8458.24
2022-11-19T08:35:37.483Z,8458.24
2022-11-19T08:36:37.637Z,11991.04
2022-11-19T08:37:37.790Z,11991.04
2022-11-19T08:38:38.898Z,11991.04
2022-11-19T08:39:39.305Z,11991.04
2022-11-19T08:40:39.461Z,11991.04
2022-11-19T08:41:39.623Z,11991.04
2022-11-19T08:42:39.776Z,11991.04
2022-11-19T08:43:39.924Z,13199.36
2022-11-19T08:44:40.079Z,13199.36
2022-11-19T08:45:40.231Z,13199.36
2022-11-19T08:46:40.383Z,15390.72
2022-11-19T08:47:40.530Z,19599.36
2022-11-19T08:48:40.797Z,17192.96
2022-11-19T08:49:40.951Z,15196.16
2022-11-19T08:50:41.122Z,18196.48
2022-11-19T08:51:41.308Z,18196.48
2022-11-19T08:52:41.481Z,20193.28
2022-11-19T08:53:41.637Z,22999.04
2022-11-19T08:54:41.797Z,25600
2022-11-19T08:55:41.947Z,25600
2022-11-19T08:56:42.101Z,29184
2022-11-19T08:57:42.261Z,32993.28
2022-11-19T08:58:42.415Z,36782.08
2022-11-19T08:59:42.560Z,36782.08
2022-11-19T09:00:42.853Z,40591.36
2022-11-19T09:01:43.159Z,40591.36
2022-11-19T09:02:43.327Z,40591.36
2022-11-19T09:03:43.486Z,40591.36
2022-11-19T09:04:43.639Z,36392.96
2022-11-19T09:05:43.787Z,36392.96
2022-11-19T09:06:43.942Z,40181.76
2022-11-19T09:07:44.117Z,40181.76
2022-11-19T09:08:44.272Z,44359.68
2022-11-19T09:09:44.439Z,44359.68
2022-11-19T09:10:44.594Z,34590.72
2022-11-19T09:11:44.752Z,34590.72
2022-11-19T09:12:44.914Z,26992.64
2022-11-19T09:13:45.076Z,26992.64
2022-11-19T09:14:45.267Z,29982.72
2022-11-19T09:15:45.440Z,29982.72
2022-11-19T09:16:45.588Z,29982.72
2022-11-19T09:17:47.100Z,26992.64
2022-11-19T09:18:47.386Z,20398.08
2022-11-19T09:19:47.551Z,15994.88
2022-11-19T09:20:47.698Z,12800
2022-11-19T09:21:47.854Z,11192.32
2022-11-19T09:22:48.010Z,8857.6
2022-11-19T09:23:48.162Z,8857.6
2022-11-19T09:24:48.312Z,7895.04
2022-11-19T09:25:48.469Z,7895.04
2022-11-19T09:26:52.552Z,7096.32
2022-11-19T09:27:54.796Z,7116.8
2022-11-19T09:28:54.950Z,7116.8
2022-11-19T09:29:55.098Z,7116.8
2022-11-19T09:30:55.249Z,7116.8
2022-11-19T09:31:55.402Z,6318.08
2022-11-19T09:32:55.555Z,6318.08
2022-11-19T09:33:55.703Z,5678.08
2022-11-19T09:34:55.855Z,5678.08
2022-11-19T09:35:56.005Z,5678.08
2022-11-19T09:36:56.157Z,5678.08
2022-11-19T09:37:56.312Z,5079.04
2022-11-19T09:38:56.470Z,5079.04
2022-11-19T09:39:56.625Z,4538.88
2022-11-19T09:40:56.784Z,4057.6
2022-11-19T09:41:56.940Z,4057.6
2022-11-19T09:42:57.101Z,3637.76
2022-11-19T09:43:57.318Z,3637.76
2022-11-19T09:44:57.471Z,3637.76
2022-11-19T09:45:57.627Z,3637.76
2022-11-19T09:46:57.800Z,3637.76
2022-11-19T09:47:57.955Z,3637.76
2022-11-19T09:48:58.107Z,3637.76
2022-11-19T09:49:58.255Z,3637.76
2022-11-19T09:50:58.421Z,3637.76
2022-11-19T09:51:58.578Z,3637.76
2022-11-19T09:52:58.726Z,3878.4
2022-11-19T09:53:58.875Z,3878.4
2022-11-19T09:54:59.027Z,4298.24
2022-11-19T09:55:59.189Z,4298.24
2022-11-19T09:57:04.166Z,4298.24
2022-11-19T09:58:04.823Z,4779.52
2022-11-19T09:59:04.983Z,4779.52
2022-11-19T10:00:05.134Z,4779.52
2022-11-19T10:01:05.296Z,4779.52
2022-11-19T10:02:05.463Z,5258.24
2022-11-19T10:03:05.672Z,5258.24
2022-11-19T10:04:06.002Z,5258.24
2022-11-19T10:05:06.154Z,5258.24
2022-11-19T10:06:06.305Z,5795.84
2022-11-19T10:07:06.553Z,5795.84
2022-11-19T10:08:07.014Z,5795.84
2022-11-19T10:09:07.165Z,5795.84
2022-11-19T10:10:12.014Z,6400
2022-11-19T10:11:13.128Z,6635.52
2022-11-19T10:12:13.281Z,6635.52
2022-11-19T10:13:13.431Z,6635.52
2022-11-19T10:14:13.582Z,6635.52
2022-11-19T10:15:13.739Z,6635.52
2022-11-19T10:16:13.900Z,6635.52
2022-11-19T10:17:14.050Z,6635.52
2022-11-19T10:18:14.206Z,6635.52
2022-11-19T10:19:14.379Z,6635.52
2022-11-19T10:20:14.670Z,6159.36
2022-11-19T10:21:14.820Z,6159.36
2022-11-19T10:22:14.973Z,6159.36
2022-11-19T10:23:15.123Z,6159.36
2022-11-19T10:24:15.277Z,7879.68
2022-11-19T10:25:15.426Z,8816.64
2022-11-19T10:26:15.592Z,8816.64
2022-11-19T10:27:15.743Z,7859.2
2022-11-19T10:28:15.892Z,7859.2
2022-11-19T10:29:16.041Z,7859.2
2022-11-19T10:30:16.194Z,7859.2
2022-11-19T10:31:16.358Z,7040
2022-11-19T10:32:16.515Z,7040
2022-11-19T10:33:16.669Z,6318.08
2022-11-19T10:34:16.822Z,5657.6
2022-11-19T10:35:16.973Z,5038.08
2022-11-19T10:36:17.124Z,4497.92
2022-11-19T10:37:17.286Z,4039.68
2022-11-19T10:38:17.451Z,4039.68
2022-11-19T10:39:18.117Z,3558.4
2022-11-19T10:40:19.383Z,3200
2022-11-19T10:41:19.552Z,3200
2022-11-19T10:42:19.708Z,3200
2022-11-19T10:43:23.298Z,3200
2022-11-19T10:44:23.961Z,3018.24
2022-11-19T10:45:24.122Z,3018.24
2022-11-19T10:46:24.286Z,3537.92
2022-11-19T10:47:24.437Z,3919.36
2022-11-19T10:48:24.584Z,4339.2
2022-11-19T10:49:24.735Z,4800
2022-11-19T10:50:24.896Z,5278.72
2022-11-19T10:51:25.092Z,5278.72
2022-11-19T10:52:25.252Z,5278.72
2022-11-19T10:53:25.404Z,5816.32
2022-11-19T10:54:25.548Z,5816.32
2022-11-19T10:55:25.712Z,6476.8
2022-11-19T10:56:25.864Z,7239.68
2022-11-19T10:57:26.031Z,8995.84
2022-11-19T10:58:26.186Z,15790.08
2022-11-19T10:59:26.346Z,30781.44
2022-11-19T11:00:26.501Z,40591.36
2022-11-19T11:01:26.732Z,30986.24
2022-11-19T11:02:28.262Z,24780.8
2022-11-19T11:03:28.716Z,22179.84
2022-11-19T11:04:28.872Z,22179.84
2022-11-19T11:05:29.024Z,19793.92
2022-11-19T11:06:29.176Z,15790.08
2022-11-19T11:07:29.432Z,14192.64
2022-11-19T11:08:29.725Z,14192.64
2022-11-19T11:09:29.896Z,12595.2
2022-11-19T11:10:30.046Z,12595.2
2022-11-19T11:11:30.203Z,11192.32
2022-11-19T11:12:30.353Z,11192.32
2022-11-19T11:13:30.507Z,11192.32
2022-11-19T11:14:30.675Z,14192.64
2022-11-19T11:15:30.825Z,15790.08
2022-11-19T11:16:33.853Z,20592.64
2022-11-19T11:17:38.088Z,28180.48
2022-11-19T11:18:38.240Z,31580.16
2022-11-19T11:19:38.392Z,35389.44
2022-11-19T11:20:38.553Z,35389.44
2022-11-19T11:21:38.713Z,35389.44
2022-11-19T11:22:38.868Z,35389.44
2022-11-19T11:23:39.040Z,45383.68
2022-11-19T11:24:39.196Z,53985.28
2022-11-19T11:25:39.343Z,60989.44
2022-11-19T11:26:39.496Z,68976.64
2022-11-19T11:27:39.647Z,68976.64
2022-11-19T11:28:39.797Z,61399.04
2022-11-19T11:29:39.944Z,67788.8
2022-11-19T11:30:40.104Z,67788.8
2022-11-19T11:31:40.264Z,76185.6
2022-11-19T11:32:40.428Z,68198.4
2022-11-19T11:33:40.581Z,68198.4
2022-11-19T11:34:43.495Z,60375.04
2022-11-19T11:35:44.333Z,60375.04
2022-11-19T11:36:44.495Z,60375.04
2022-11-19T11:37:44.661Z,60375.04
2022-11-19T11:38:44.809Z,60375.04
2022-11-19T11:39:44.961Z,60375.04
2022-11-19T11:40:45.115Z,66969.6
2022-11-19T11:42:17.744Z,66969.6
2022-11-19T11:43:18.386Z,68198.4
2022-11-19T11:44:18.535Z,68198.4
2022-11-19T11:45:18.735Z,68198.4
2022-11-19T11:46:18.910Z,68198.4
2022-11-19T11:47:19.065Z,59965.44
2022-11-19T11:48:19.221Z,52797.44
2022-11-19T11:49:19.375Z,42188.8
2022-11-19T11:50:19.523Z,37580.8
2022-11-19T11:51:19.671Z,33792
2022-11-19T11:52:19.819Z,30187.52
2022-11-19T11:53:19.974Z,30187.52
2022-11-19T11:54:20.127Z,39792.64
2022-11-19T11:55:20.284Z,43991.04
2022-11-19T11:56:20.434Z,43991.04
2022-11-19T11:57:20.591Z,38195.2
2022-11-19T11:58:20.744Z,32993.28
2022-11-19T11:59:21.320Z,29388.8
2022-11-19T12:00:22.422Z,26398.72
2022-11-19T12:01:22.577Z,17991.68
2022-11-19T12:02:22.822Z,16199.68
2022-11-19T12:03:23.133Z,16199.68
2022-11-19T12:04:23.285Z,14192.64
2022-11-19T12:05:23.436Z,12390.4
2022-11-19T12:06:23.587Z,10792.96
2022-11-19T12:07:23.805Z,9497.6
2022-11-19T12:08:26.816Z,8417.28
2022-11-19T12:09:27.446Z,8099.84
2022-11-19T12:10:27.598Z,8099.84
2022-11-19T12:11:27.755Z,8099.84
2022-11-19T12:12:27.911Z,7459.84
2022-11-19T12:13:28.058Z,6615.04
2022-11-19T12:14:28.210Z,6615.04
2022-11-19T12:15:28.367Z,5939.2
2022-11-19T12:16:28.513Z,5939.2
2022-11-19T12:17:28.692Z,5939.2
2022-11-19T12:18:28.851Z,5939.2
2022-11-19T12:19:29.004Z,5335.04
2022-11-19T12:20:29.165Z,5335.04
2022-11-19T12:21:29.321Z,5335.04
2022-11-19T12:22:29.481Z,5335.04
2022-11-19T12:23:29.643Z,5335.04
2022-11-19T12:24:29.793Z,4800
2022-11-19T12:25:29.950Z,4318.72
2022-11-19T12:26:30.100Z,4318.72
2022-11-19T12:27:30.255Z,3857.92
2022-11-19T12:28:30.413Z,3857.92
2022-11-19T12:29:30.564Z,3857.92
2022-11-19T12:30:30.716Z,3857.92
2022-11-19T12:31:30.880Z,3857.92
2022-11-19T12:32:31.029Z,11192.32
2022-11-19T12:33:31.177Z,33996.8
2022-11-19T12:34:31.324Z,33996.8
2022-11-19T12:35:31.477Z,30187.52
2022-11-19T12:36:31.640Z,22999.04
2022-11-19T12:37:31.800Z,15790.08
2022-11-19T12:38:31.954Z,10997.76
2022-11-19T12:39:32.113Z,20193.28
2022-11-19T12:40:38.798Z,26992.64
2022-11-19T12:41:42.124Z,36188.16
2022-11-19T12:42:42.275Z,36188.16
2022-11-19T12:43:42.441Z,31784.96
2022-11-19T12:44:42.617Z,28180.48
2022-11-19T12:45:42.772Z,24596.48
2022-11-19T12:46:42.924Z,19599.36
2022-11-19T12:47:45.016Z,19599.36
2022-11-19T12:48:45.445Z,17592.32
2022-11-19T12:49:45.624Z,17592.32
2022-11-19T12:50:45.779Z,13793.28
2022-11-19T12:51:45.936Z,10398.72
2022-11-19T12:52:46.098Z,8038.4
2022-11-19T12:53:46.264Z,7198.72
2022-11-19T12:54:46.418Z,6318.08
2022-11-19T12:55:46.571Z,9175.04
2022-11-19T12:56:46.733Z,8017.92
2022-11-19T12:57:46.888Z,6179.84
2022-11-19T12:58:47.038Z,4779.52
2022-11-19T12:59:47.189Z,3758.08
2022-11-19T13:00:47.366Z,3758.08
2022-11-19T13:01:47.654Z,4239.36
2022-11-19T13:02:47.809Z,4239.36
2022-11-19T13:03:47.961Z,3799.04
2022-11-19T13:04:48.114Z,3399.68
2022-11-19T13:05:48.260Z,3059.2
2022-11-19T13:06:48.408Z,2677.76
2022-11-19T13:07:48.559Z,2379.52
2022-11-19T13:08:48.713Z,2379.52
2022-11-19T13:09:48.869Z,2138.88
2022-11-19T13:10:49.044Z,2138.88
2022-11-19T13:11:49.200Z,2138.88
2022-11-19T13:12:49.352Z,2138.88
2022-11-19T13:13:49.504Z,2138.88
2022-11-19T13:14:54.578Z,2138.88
2022-11-19T13:15:55.522Z,2039.04
2022-11-19T13:16:55.678Z,2039.04
2022-11-19T13:17:55.828Z,2039.04
2022-11-19T13:18:55.978Z,2039.04
2022-11-19T13:19:56.124Z,2019.84
2022-11-19T13:20:56.280Z,2019.84
2022-11-19T13:21:56.433Z,2019.84
2022-11-19T13:22:56.583Z,2019.84